Terminal Aerodrome Forecast
Issued by NWS

Home | Current Version | Previous Version | Graphics & Text | Print | Product List | Glossary On
Versions: 1 2 3 4 5 6 7 8 9 10 11 12 13 14 15 16 17 18 19 20 21 22 23 24
000
FTUS43 KUNR 050526
TAFGCC
TAF
KGCC 050526Z 0506/0606 23013KT P6SM BKN060 OVC100
     FM050800 32018G28KT 2SM -SN BKN008 OVC015
     FM051000 33022G32KT 3/4SM -SN BLSN VV007
     FM051700 33015G25KT 4SM -SN BKN015 OVC030
     FM052300 34015KT P6SM BKN030=

USA.gov is the U.S. government's official web portal to all federal, state and local government web resources and services.